Strona główna
METAR-TAF:

METAR-TAF

Lotnisko :

Port lotniczy Maputo

Maputo, Mozambik

Szerokość geograficzna: 25-55S, Długość geograficzna: 032-34E, wysokość: 39 m

Aktualna obserwacja pogody

Raport powstał 3 godziny i 25 minut temu, godzina 16:00 UTC
Wiatr 8 kt od północno-północny wschód
Temperatura 23°C
Wilgotność 31%
Ciśnienie 1020 hPa
Widzialność 10 km lub więcej
Brak chmur poniżej 1500 m i brak chmur cumulonimbus

METAR: FQMA 171600Z 03008KT CAVOK 23/05 Q1020 NOSIG

czas: 21:25 (19:25 UTC)

Prognoza

Raport powstał 3 godziny i 25 minut temu, godzina 16:00 UTC
Prognoza ważna od 17 godzina 18 UTC do 18 godzina 24 UTC
Wiatr 8 kt od północno-północny zachód
Widzialność 10 km lub więcej
Brak chmur poniżej 1500 m i brak chmur cumulonimbus
Stopniowe zmiany
od 18 godzina 12 UTC do 18 godzina 14 UTC
Wiatr 12 kt od wschodnio-północny wschód
Stopniowe zmiany
od 18 godzina 18 UTC do 18 godzina 20 UTC
Wiatr 8 kt od północ

TAF: FQMA 171600Z 1718/1824 34008KT CAVOK TX33/1813Z TN14/1803Z BECMG 1812/1814 06012KT BECMG 1818/1820 35008KT

Obserwacja i prognoza pogody dla ponad 4000 lotnisk (raport METAR i TAF).

Dostępne stacje oznaczono żółtymi i czerwonymi punktami na mapie.

Najedź kursorem aby zobaczyć nazwę stacji.

Kliknij aby zobaczyć obserwacje i prognozy pogody.

Aby zmienić mapę: kliknij na zielony przycisk z czarnym krzyżykiem, aby powiększyć; na zielony przycisk z myślnikiem, aby pomniejszyć; na zielone strzałki, aby przejść do map sąsiednich.


METAR-TAF: